Time;durP1;ratioP1;P1;durP2;ratioP2;P2;SDS_P1;SDS_P2;PMS_P1;PMS_P2;Temp;Humidity;BMP_temperature;BMP_pressure;BME280_temperature;BME280_humidity;BME280_pressure;Samples;Min_cycle;Max_cycle;Signal;HPM_P1;HPM_P2
2023/01/24 00:00:24;;;;;;;77.35;12.00;;;3.80;85.90;;;;;;4982647;28;20194;-84
2023/01/24 00:02:50;;;;;;;76.13;11.82;;;3.80;84.30;;;;;;4983703;28;20179;-84
2023/01/24 00:05:23;;;;;;;74.60;11.20;;;3.80;84.30;;;;;;4983921;28;20262;-84
2023/01/24 00:07:51;;;;;;;72.47;9.95;;;3.80;83.70;;;;;;4982911;28;20152;-84
2023/01/24 00:10:23;;;;;;;72.07;10.63;;;3.90;77.60;;;;;;4981773;28;20179;-85
2023/01/24 00:13:01;;;;;;;73.68;9.90;;;3.70;85.00;;;;;;4965050;28;20175;-84
2023/01/24 00:15:35;;;;;;;73.38;10.60;;;3.70;85.60;;;;;;4964831;28;20247;-84
2023/01/24 00:18:01;;;;;;;73.38;10.55;;;3.70;82.90;;;;;;4981668;28;20217;-84
2023/01/24 00:20:30;;;;;;;75.10;11.13;;;3.80;80.70;;;;;;4982153;28;20207;-84
2023/01/24 00:23:03;;;;;;;74.75;10.68;;;3.80;81.80;;;;;;4980970;28;20198;-84
2023/01/24 00:25:32;;;;;;;76.95;10.65;;;3.80;76.40;;;;;;4983201;28;20515;-84
2023/01/24 00:28:00;;;;;;;71.45;10.15;;;3.80;81.80;;;;;;4966443;28;20229;-84
2023/01/24 00:30:36;;;;;;;75.50;11.75;;;3.70;86.80;;;;;;4983917;28;20183;-84
2023/01/24 00:33:02;;;;;;;73.70;11.50;;;3.70;88.10;;;;;;4984117;28;20159;-84
2023/01/24 00:35:28;;;;;;;73.60;10.60;;;3.70;90.00;;;;;;4984185;28;20171;-84
2023/01/24 00:38:03;;;;;;;72.67;11.23;;;3.80;87.60;;;;;;4983308;28;20433;-84
2023/01/24 00:40:29;;;;;;;75.22;11.43;;;3.70;84.00;;;;;;4983986;28;20186;-84
2023/01/24 00:42:57;;;;;;;75.20;10.83;;;3.80;84.70;;;;;;4983026;28;20255;-84
2023/01/24 00:45:43;;;;;;;74.88;10.52;;;3.70;90.90;;;;;;4983104;28;20403;-84
2023/01/24 00:48:09;;;;;;;74.85;11.10;;;3.70;90.70;;;;;;4983573;28;20519;-84
2023/01/24 00:50:35;;;;;;;74.07;11.18;;;3.70;88.10;;;;;;4983626;28;20188;-84
2023/01/24 00:53:04;;;;;;;72.30;10.60;;;3.60;90.10;;;;;;4983135;28;20190;-84
2023/01/24 00:55:30;;;;;;;70.68;9.35;;;3.80;86.70;;;;;;4982309;28;20583;-84
2023/01/24 00:57:56;;;;;;;75.35;10.75;;;3.80;84.60;;;;;;4983445;28;20579;-84
2023/01/24 01:00:36;;;;;;;72.97;10.13;;;3.90;79.80;;;;;;4979086;28;20191;-82
2023/01/24 01:03:02;;;;;;;76.10;11.40;;;3.70;83.20;;;;;;4978870;28;20854;-83
2023/01/24 01:05:32;;;;;;;71.88;8.98;;;3.80;84.40;;;;;;4979542;28;20686;-82
2023/01/24 01:08:25;;;;;;;75.00;10.73;;;3.80;83.50;;;;;;4979545;28;20171;-82
2023/01/24 01:10:51;;;;;;;76.10;11.25;;;3.70;80.90;;;;;;4965530;28;20211;-84
2023/01/24 01:13:17;;;;;;;75.72;11.40;;;3.70;82.80;;;;;;4982832;28;20535;-84
2023/01/24 01:15:45;;;;;;;72.60;10.67;;;3.70;85.80;;;;;;4981514;28;20199;-84
2023/01/24 01:18:11;;;;;;;71.88;9.77;;;3.70;86.20;;;;;;4965136;28;20207;-84
2023/01/24 01:20:39;;;;;;;72.47;10.17;;;3.70;81.90;;;;;;4965140;28;20217;-84
2023/01/24 01:23:13;;;;;;;71.63;9.82;;;3.70;79.40;;;;;;4982644;28;20802;-84
2023/01/24 01:25:44;;;;;;;74.05;10.90;;;3.70;83.10;;;;;;4980196;28;20159;-82
2023/01/24 01:28:18;;;;;;;72.53;10.70;;;3.60;82.90;;;;;;4961532;28;20162;-82
2023/01/24 01:30:51;;;;;;;73.13;9.63;;;3.60;87.00;;;;;;4978450;28;20183;-86
2023/01/24 01:33:23;;;;;;;74.78;10.95;;;3.60;90.20;;;;;;4979349;28;20611;-84
2023/01/24 01:35:53;;;;;;;74.32;11.60;;;3.60;88.60;;;;;;4961715;28;20167;-84
2023/01/24 01:38:29;;;;;;;73.57;11.70;;;3.50;90.50;;;;;;4979011;28;20175;-85
2023/01/24 01:40:58;;;;;;;72.43;10.25;;;3.50;91.10;;;;;;4981951;28;20190;-86
2023/01/24 01:43:29;;;;;;;74.57;10.73;;;3.50;91.50;;;;;;4963529;28;20195;-86
2023/01/24 01:46:23;;;;;;;72.20;10.68;;;3.50;92.70;;;;;;4981403;28;20156;-86
2023/01/24 01:49:03;;;;;;;73.25;10.60;;;3.50;93.80;;;;;;4985658;28;20156;-86
2023/01/24 01:51:42;;;;;;;75.15;11.98;;;3.50;93.30;;;;;;4968535;28;20187;-86
2023/01/24 01:54:13;;;;;;;75.18;11.77;;;3.50;93.40;;;;;;4985099;28;20147;-86
2023/01/24 01:57:21;;;;;;;72.07;10.52;;;3.50;92.80;;;;;;4968330;28;20239;-86
2023/01/24 02:00:08;;;;;;;74.70;11.63;;;3.50;93.10;;;;;;4907547;29;20158;-86
2023/01/24 02:02:36;;;;;;;73.72;10.80;;;3.50;93.20;;;;;;4891136;29;20213;-86
2023/01/24 02:05:10;;;;;;;73.18;11.65;;;3.60;91.50;;;;;;4957549;28;20171;-86
2023/01/24 02:07:58;;;;;;;73.18;11.48;;;3.60;90.00;;;;;;4985064;28;20175;-86
2023/01/24 02:11:37;;;;;;;73.53;11.30;;;3.50;90.90;;;;;;4984248;28;20190;-86
2023/01/24 02:13:11;;;;;;;71.43;9.80;;;3.50;87.30;;;;;;4983127;28;20163;-85
2023/01/24 02:18:30;;;;;;;72.95;10.63;;;3.50;82.70;;;;;;4985106;28;20449;-85
2023/01/24 02:20:59;;;;;;;75.28;11.35;;;3.50;84.20;;;;;;4984948;28;20278;-85
2023/01/24 02:23:42;;;;;;;71.60;10.48;;;3.60;83.00;;;;;;4967846;28;20263;-85
2023/01/24 02:26:11;;;;;;;73.85;11.10;;;3.50;90.10;;;;;;4985530;28;20163;-85
2023/01/24 02:28:40;;;;;;;72.90;10.93;;;3.40;92.50;;;;;;4967120;28;20171;-85
2023/01/24 02:31:05;;;;;;;74.30;11.15;;;3.40;92.10;;;;;;4967592;28;20183;-85
2023/01/24 02:33:34;;;;;;;72.43;10.37;;;3.40;92.60;;;;;;4984221;28;20178;-85
2023/01/24 02:36:22;;;;;;;73.45;11.05;;;3.40;93.50;;;;;;4985007;28;20226;-85
2023/01/24 02:39:00;;;;;;;73.50;10.52;;;3.40;94.80;;;;;;4967652;28;20173;-85
2023/01/24 02:41:36;;;;;;;73.30;9.80;;;3.40;96.00;;;;;;4984525;28;20194;-85
2023/01/24 02:44:16;;;;;;;73.63;11.25;;;3.40;94.40;;;;;;4984261;28;20159;-85
2023/01/24 02:46:45;;;;;;;73.03;10.45;;;3.30;93.00;;;;;;4984869;28;20144;-85
2023/01/24 02:49:11;;;;;;;72.30;10.93;;;3.30;94.70;;;;;;4967136;28;20195;-85
2023/01/24 02:54:22;;;;;;;73.07;10.30;;;3.30;92.70;;;;;;4984944;28;20155;-85
2023/01/24 02:59:37;;;;;;;73.55;11.35;;;3.40;93.00;;;;;;4982881;28;20537;-83
2023/01/24 03:02:05;;;;;;;72.72;10.95;;;3.30;92.60;;;;;;4980453;28;20191;-84
2023/01/24 03:04:34;;;;;;;72.95;10.50;;;3.40;92.40;;;;;;4963952;28;20218;-84
2023/01/24 03:07:00;;;;;;;75.38;11.80;;;3.50;91.80;;;;;;4981156;28;20186;-83
2023/01/24 03:09:45;;;;;;;73.57;11.30;;;3.50;90.30;;;;;;4980774;28;20163;-83
2023/01/24 03:36:56;;;;;;;73.95;9.65;;;3.10;94.20;;;;;;4983829;28;20159;-85
2023/01/24 03:42:08;;;;;;;74.10;11.13;;;3.20;95.00;;;;;;4983417;28;20536;-85
2023/01/24 03:44:34;;;;;;;74.43;11.90;;;3.10;94.10;;;;;;4966600;28;20167;-85
2023/01/24 03:47:03;;;;;;;74.20;11.50;;;3.20;95.20;;;;;;4983758;28;20254;-85
2023/01/24 03:52:28;;;;;;;75.32;12.10;;;3.10;94.80;;;;;;4984030;28;20194;-86
2023/01/24 03:55:04;;;;;;;71.78;9.48;;;3.10;92.80;;;;;;4983838;28;20160;-86
2023/01/24 03:57:30;;;;;;;72.60;9.55;;;3.20;88.10;;;;;;4966098;28;20237;-85
2023/01/24 03:59:58;;;;;;;71.50;10.13;;;3.20;84.90;;;;;;4983811;28;20171;-85
2023/01/24 04:02:23;;;;;;;73.60;10.38;;;3.10;90.30;;;;;;4982907;28;20461;-85
2023/01/24 04:07:33;;;;;;;73.47;9.77;;;3.10;91.70;;;;;;4983136;28;20166;-85
2023/01/24 04:09:59;;;;;;;72.87;10.10;;;3.00;90.10;;;;;;4982183;28;20171;-85
2023/01/24 04:12:28;;;;;;;78.40;11.37;;;3.10;91.90;;;;;;4965471;28;20267;-85
2023/01/24 04:14:54;;;;;;;72.93;11.10;;;3.10;91.40;;;;;;4965682;28;20535;-85
2023/01/24 04:17:19;;;;;;;72.57;9.37;;;3.10;92.30;;;;;;4964907;28;20167;-85
2023/01/24 04:19:45;;;;;;;71.97;9.47;;;3.10;93.00;;;;;;4964520;28;20433;-85
2023/01/24 04:22:11;;;;;;;72.65;10.25;;;3.00;92.80;;;;;;4982828;28;20222;-85
2023/01/24 04:24:37;;;;;;;75.07;11.32;;;3.00;94.30;;;;;;4981585;28;20222;-85
2023/01/24 04:27:03;;;;;;;74.17;11.27;;;3.00;95.10;;;;;;4983190;28;20159;-85
2023/01/24 04:29:31;;;;;;;75.80;10.80;;;3.00;94.00;;;;;;4982337;28;20250;-85
2023/01/24 04:32:00;;;;;;;70.53;9.27;;;3.10;93.10;;;;;;4965427;28;20198;-85
2023/01/24 04:34:26;;;;;;;74.60;10.80;;;3.10;93.70;;;;;;4965251;28;20171;-85
2023/01/24 04:36:51;;;;;;;69.20;8.87;;;3.10;91.20;;;;;;4964874;28;20182;-86
2023/01/24 04:39:17;;;;;;;72.63;9.67;;;3.00;93.00;;;;;;4982503;28;20163;-85
2023/01/24 04:41:43;;;;;;;73.90;11.33;;;3.00;93.30;;;;;;4965361;28;20199;-85
2023/01/24 04:44:08;;;;;;;73.47;10.97;;;3.00;94.40;;;;;;4983393;28;20218;-86
2023/01/24 04:46:34;;;;;;;74.27;10.50;;;3.00;93.60;;;;;;4964231;28;20167;-85
2023/01/24 04:49:00;;;;;;;72.17;9.90;;;3.10;93.20;;;;;;4979683;28;20170;-85
2023/01/24 04:51:25;;;;;;;73.77;9.97;;;3.10;90.50;;;;;;4962880;28;20198;-85
2023/01/24 04:53:51;;;;;;;71.47;9.33;;;3.00;94.00;;;;;;4962632;28;20198;-85
2023/01/24 04:56:16;;;;;;;72.80;10.07;;;3.00;94.60;;;;;;4980062;28;20262;-85
2023/01/24 04:58:42;;;;;;;75.97;11.83;;;3.00;93.10;;;;;;4979467;28;20171;-84
2023/01/24 05:01:08;;;;;;;73.40;10.40;;;3.10;92.60;;;;;;4978867;28;20197;-85
2023/01/24 05:03:33;;;;;;;71.17;9.87;;;3.00;91.90;;;;;;4979137;28;20223;-84
2023/01/24 05:05:59;;;;;;;71.20;9.97;;;3.00;92.80;;;;;;4979165;28;20611;-84
2023/01/24 05:08:26;;;;;;;74.20;11.20;;;3.00;92.20;;;;;;4978961;28;20251;-85
2023/01/24 05:10:52;;;;;;;74.15;10.65;;;3.00;92.30;;;;;;4978652;28;20555;-84
2023/01/24 05:13:18;;;;;;;71.75;10.30;;;3.10;92.10;;;;;;4978910;28;20649;-84
2023/01/24 05:15:48;;;;;;;73.97;10.77;;;3.00;92.60;;;;;;4978939;28;20187;-84
2023/01/24 05:18:14;;;;;;;75.53;10.90;;;3.00;94.10;;;;;;4978020;28;20244;-83
2023/01/24 05:20:39;;;;;;;76.50;10.20;;;3.10;93.50;;;;;;5043415;23;20218;-83
2023/01/24 05:23:05;;;;;;;73.67;10.67;;;3.20;89.10;;;;;;4989117;28;20191;-84
2023/01/24 05:25:31;;;;;;;70.60;9.00;;;3.20;91.00;;;;;;4990464;28;20442;-84
2023/01/24 05:28:00;;;;;;;74.10;10.70;;;3.10;92.10;;;;;;4990545;28;20582;-83
2023/01/24 05:30:25;;;;;;;81.10;10.50;;;3.00;93.90;;;;;;4990779;28;20423;-84
2023/01/24 05:32:56;;;;;;;75.53;12.23;;;3.00;97.30;;;;;;4990760;28;20174;-84
2023/01/24 05:35:21;;;;;;;71.72;9.15;;;3.00;97.90;;;;;;4990276;28;20434;-84
2023/01/24 05:37:47;;;;;;;73.30;9.63;;;3.10;98.60;;;;;;4989382;28;20175;-84
2023/01/24 05:40:13;;;;;;;72.43;10.57;;;3.10;97.50;;;;;;4989836;28;20437;-83
2023/01/24 05:42:42;;;;;;;73.53;10.90;;;3.10;95.90;;;;;;4989851;28;20191;-84
2023/01/24 05:45:08;;;;;;;74.32;9.88;;;3.10;96.30;;;;;;4989726;28;20164;-84
2023/01/24 05:47:35;;;;;;;72.82;10.15;;;3.00;96.80;;;;;;4989519;28;20630;-84
2023/01/24 05:50:01;;;;;;;72.82;9.95;;;3.00;97.60;;;;;;4989823;28;20223;-84
2023/01/24 05:52:27;;;;;;;72.30;11.37;;;3.00;94.70;;;;;;4990126;28;20178;-83
2023/01/24 05:54:55;;;;;;;73.40;10.77;;;3.00;96.40;;;;;;4988702;28;20414;-84
2023/01/24 05:57:21;;;;;;;75.00;10.55;;;3.00;97.50;;;;;;4990190;28;20167;-84
2023/01/24 05:59:47;;;;;;;73.23;10.80;;;3.00;96.20;;;;;;4989162;28;20206;-84
2023/01/24 06:02:13;;;;;;;73.17;10.97;;;3.00;96.10;;;;;;4989063;28;20199;-84
2023/01/24 06:04:38;;;;;;;72.10;10.57;;;3.00;98.00;;;;;;4989025;28;20178;-83
2023/01/24 06:07:04;;;;;;;75.30;12.80;;;3.00;97.50;;;;;;4989432;28;20419;-84
2023/01/24 06:09:30;;;;;;;76.07;10.80;;;3.00;95.20;;;;;;4989485;28;20210;-84
2023/01/24 06:11:55;;;;;;;73.47;11.20;;;2.90;95.30;;;;;;4988691;28;20231;-83
2023/01/24 06:14:27;;;;;;;71.47;10.07;;;2.90;97.00;;;;;;4989124;28;20175;-83
2023/01/24 06:16:53;;;;;;;70.68;10.02;;;2.90;94.90;;;;;;4990835;28;20156;-84
2023/01/24 06:19:22;;;;;;;72.07;10.57;;;2.90;94.20;;;;;;4988938;28;20202;-83
2023/01/24 06:22:04;;;;;;;70.07;9.30;;;3.00;94.00;;;;;;4990113;28;20271;-84
2023/01/24 06:24:30;;;;;;;72.63;10.10;;;2.90;93.40;;;;;;4988096;28;20160;-84
2023/01/24 06:26:56;;;;;;;73.95;9.50;;;2.90;94.30;;;;;;4989772;28;20185;-82
2023/01/24 06:29:22;;;;;;;76.03;11.02;;;3.00;94.90;;;;;;4988557;28;20160;-82
2023/01/24 06:32:06;;;;;;;72.70;10.20;;;3.00;92.60;;;;;;4989930;28;20183;-84
2023/01/24 06:35:00;;;;;;;72.97;10.32;;;2.90;92.80;;;;;;4991475;28;20395;-83
2023/01/24 06:37:32;;;;;;;72.18;10.38;;;3.00;92.70;;;;;;4991875;28;20159;-83
2023/01/24 06:39:58;;;;;;;76.53;10.60;;;3.00;93.90;;;;;;4993198;28;20155;-83
2023/01/24 06:42:24;;;;;;;71.90;10.15;;;3.10;91.00;;;;;;4991798;28;20187;-83
2023/01/24 06:44:50;;;;;;;75.50;10.97;;;3.10;88.70;;;;;;4992895;28;20677;-84
2023/01/24 06:47:16;;;;;;;72.32;10.38;;;3.10;84.60;;;;;;4993411;28;20406;-83
2023/01/24 06:49:42;;;;;;;72.40;11.25;;;3.10;85.30;;;;;;4991832;28;20163;-83
2023/01/24 06:52:09;;;;;;;74.15;10.60;;;3.00;87.90;;;;;;4992882;28;20242;-83
2023/01/24 06:54:35;;;;;;;72.78;9.45;;;3.00;86.30;;;;;;4992403;28;20174;-83
2023/01/24 06:57:03;;;;;;;75.75;10.90;;;2.90;90.70;;;;;;4991237;28;20211;-83
2023/01/24 06:59:28;;;;;;;73.82;11.00;;;2.90;93.70;;;;;;4991483;28;20239;-83
2023/01/24 07:01:54;;;;;;;73.20;11.03;;;2.90;94.10;;;;;;4991685;28;20535;-83
2023/01/24 07:04:20;;;;;;;72.40;9.40;;;2.90;93.80;;;;;;4992840;28;20169;-83
2023/01/24 07:06:46;;;;;;;75.77;10.77;;;2.80;95.40;;;;;;4992143;28;20406;-83
2023/01/24 07:09:12;;;;;;;75.07;10.50;;;2.80;95.30;;;;;;4991008;28;20167;-83
2023/01/24 07:11:38;;;;;;;72.90;9.80;;;2.80;94.90;;;;;;4991666;28;20198;-83
2023/01/24 07:14:04;;;;;;;74.00;11.20;;;2.90;94.40;;;;;;4990760;28;20505;-83
2023/01/24 07:16:30;;;;;;;71.67;9.50;;;2.80;93.40;;;;;;4991275;28;20179;-83
2023/01/24 07:18:55;;;;;;;72.30;12.27;;;2.90;94.50;;;;;;4990914;28;20172;-83
2023/01/24 07:21:22;;;;;;;72.28;9.93;;;2.90;94.50;;;;;;4991000;28;20203;-83
2023/01/24 07:23:48;;;;;;;72.97;11.23;;;2.90;94.40;;;;;;4989732;28;20187;-82
2023/01/24 07:26:14;;;;;;;72.68;10.18;;;2.90;92.60;;;;;;4991072;28;20171;-83
2023/01/24 07:28:46;;;;;;;72.50;10.27;;;2.80;92.80;;;;;;4990730;28;20167;-83
2023/01/24 07:31:14;;;;;;;71.70;10.27;;;2.80;91.70;;;;;;4991163;28;20654;-83
2023/01/24 07:33:40;;;;;;;70.90;8.75;;;2.80;91.30;;;;;;4989436;28;20175;-83
2023/01/24 07:36:15;;;;;;;71.40;10.20;;;2.80;92.50;;;;;;4991137;28;20175;-83
2023/01/24 07:38:41;;;;;;;74.28;10.80;;;2.90;90.80;;;;;;4990404;28;20248;-83
2023/01/24 07:41:10;;;;;;;71.70;9.32;;;2.90;90.00;;;;;;4989586;28;20201;-83
2023/01/24 07:43:36;;;;;;;71.80;9.45;;;2.90;92.30;;;;;;4990718;28;20187;-83
2023/01/24 07:46:03;;;;;;;73.63;11.40;;;2.80;95.00;;;;;;4990474;28;20661;-83
2023/01/24 07:48:28;;;;;;;75.93;10.98;;;2.90;95.50;;;;;;4990948;28;20406;-83
2023/01/24 07:50:59;;;;;;;73.90;10.60;;;2.90;96.20;;;;;;4990850;28;20183;-81
2023/01/24 07:53:24;;;;;;;73.53;10.32;;;3.00;94.80;;;;;;4991314;28;20462;-81
2023/01/24 07:55:50;;;;;;;73.30;10.50;;;3.00;90.80;;;;;;4991736;28;20171;-81
2023/01/24 07:58:16;;;;;;;71.90;10.23;;;3.10;88.60;;;;;;4991937;28;20183;-80
2023/01/24 08:00:44;;;;;;;72.63;10.37;;;3.20;84.40;;;;;;4990893;28;20198;-82
2023/01/24 08:03:10;;;;;;;71.45;10.10;;;3.20;83.90;;;;;;4989207;28;20977;-81
2023/01/24 08:05:41;;;;;;;73.57;11.27;;;3.20;81.70;;;;;;4990272;28;20186;-81
2023/01/24 08:08:07;;;;;;;72.47;11.35;;;3.20;81.20;;;;;;4988395;28;20168;-81
2023/01/24 08:10:33;;;;;;;72.87;10.33;;;3.10;84.60;;;;;;4989327;28;20230;-81
2023/01/24 08:12:59;;;;;;;73.45;10.40;;;3.00;89.90;;;;;;4988940;28;20174;-81
2023/01/24 08:15:25;;;;;;;70.60;10.40;;;2.90;92.10;;;;;;4990485;28;20168;-81
2023/01/24 08:17:50;;;;;;;71.40;10.07;;;2.90;91.90;;;;;;4990730;28;20578;-81
2023/01/24 08:20:16;;;;;;;74.87;11.23;;;2.90;93.90;;;;;;4990305;28;20218;-81
2023/01/24 08:22:42;;;;;;;75.87;10.50;;;2.90;93.20;;;;;;4989321;28;20199;-80
2023/01/24 08:25:09;;;;;;;74.10;11.20;;;3.00;93.00;;;;;;4989959;28;20430;-80
2023/01/24 08:27:35;;;;;;;72.22;10.20;;;3.00;93.50;;;;;;4990419;28;20225;-81
2023/01/24 08:30:04;;;;;;;70.78;10.23;;;3.10;90.20;;;;;;4989309;28;20163;-80
2023/01/24 08:32:31;;;;;;;73.88;10.77;;;3.00;87.90;;;;;;4988270;28;20179;-80
2023/01/24 08:34:57;;;;;;;72.70;10.73;;;2.90;92.00;;;;;;4988929;28;20171;-81
2023/01/24 08:37:23;;;;;;;71.20;9.20;;;2.90;95.50;;;;;;4989016;28;20176;-81
2023/01/24 08:39:49;;;;;;;71.05;9.43;;;2.90;94.80;;;;;;4988407;28;20187;-80
2023/01/24 08:42:15;;;;;;;71.37;10.90;;;2.90;95.70;;;;;;4988499;28;20202;-80
2023/01/24 08:44:43;;;;;;;72.63;10.87;;;3.00;97.60;;;;;;4989900;28;20171;-81
2023/01/24 08:47:09;;;;;;;71.22;10.38;;;3.10;95.70;;;;;;4988611;28;20875;-81
2023/01/24 08:49:35;;;;;;;71.20;9.93;;;3.10;93.50;;;;;;4987958;28;20167;-81
2023/01/24 08:52:01;;;;;;;71.63;10.57;;;3.10;95.20;;;;;;4989488;28;20312;-81
2023/01/24 08:54:35;;;;;;;73.57;9.23;;;3.00;93.20;;;;;;4988522;28;20174;-81
2023/01/24 08:57:02;;;;;;;70.97;10.50;;;3.10;90.80;;;;;;4987675;28;20166;-80
2023/01/24 08:59:28;;;;;;;71.15;9.95;;;3.00;89.90;;;;;;4988790;28;20171;-81
2023/01/24 09:01:53;;;;;;;72.30;9.50;;;3.10;92.00;;;;;;4989538;28;20198;-80
2023/01/24 09:04:19;;;;;;;69.80;9.60;;;3.10;88.90;;;;;;4989056;28;20406;-81
2023/01/24 09:06:45;;;;;;;72.13;10.83;;;3.10;90.70;;;;;;4987988;28;20191;-81
2023/01/24 09:09:11;;;;;;;71.53;10.00;;;3.10;88.90;;;;;;4990129;28;20691;-83
2023/01/24 09:11:37;;;;;;;74.17;10.53;;;3.10;89.30;;;;;;4988291;28;20430;-83
2023/01/24 09:14:03;;;;;;;70.75;9.50;;;3.30;89.20;;;;;;4988258;28;20944;-82
2023/01/24 09:16:29;;;;;;;70.57;10.07;;;3.40;82.50;;;;;;4987987;28;20175;-81
2023/01/24 09:18:55;;;;;;;71.50;9.07;;;3.40;75.80;;;;;;4987340;28;20407;-81
2023/01/24 09:21:21;;;;;;;71.82;9.73;;;3.30;78.60;;;;;;4988768;28;20230;-81
2023/01/24 09:23:47;;;;;;;68.68;8.27;;;3.30;81.90;;;;;;4988450;28;20195;-81
2023/01/24 09:26:13;;;;;;;72.30;9.17;;;3.30;79.30;;;;;;4989473;28;20165;-81
2023/01/24 09:28:40;;;;;;;70.07;10.13;;;3.30;84.50;;;;;;4989474;28;20395;-81
2023/01/24 09:31:08;;;;;;;69.88;9.88;;;3.20;81.00;;;;;;4988312;28;20198;-81
2023/01/24 09:33:34;;;;;;;69.75;9.30;;;3.30;86.70;;;;;;4988385;28;20171;-81
2023/01/24 09:36:02;;;;;;;70.97;10.50;;;3.30;88.20;;;;;;4986962;28;20174;-81
2023/01/24 09:38:30;;;;;;;69.07;8.63;;;3.40;75.80;;;;;;4988704;28;20167;-81
2023/01/24 09:41:22;;;;;;;71.00;10.73;;;3.20;79.00;;;;;;4987640;28;20195;-81
2023/01/24 09:43:59;;;;;;;76.85;9.70;;;3.30;88.10;;;;;;4965526;28;20274;-80
2023/01/24 09:46:48;;;;;;;70.20;9.40;;;3.30;89.40;;;;;;4988672;28;20159;-81
2023/01/24 09:49:45;;;;;;;72.45;10.18;;;3.30;86.90;;;;;;4988742;28;20159;-81
2023/01/24 09:52:17;;;;;;;69.93;9.13;;;3.40;82.70;;;;;;4988894;28;20186;-83
2023/01/24 09:55:12;;;;;;;68.90;9.07;;;3.30;85.90;;;;;;4987893;28;20219;-83
2023/01/24 09:57:54;;;;;;;70.28;9.07;;;3.40;81.00;;;;;;4979295;28;20206;-83
2023/01/24 10:00:27;;;;;;;72.00;10.55;;;3.40;77.60;;;;;;4988297;28;20190;-83
2023/01/24 10:02:55;;;;;;;69.90;9.65;;;3.30;80.20;;;;;;4989024;28;20175;-83
2023/01/24 10:05:26;;;;;;;71.50;9.32;;;3.40;84.50;;;;;;4987578;28;20163;-83
2023/01/24 10:08:16;;;;;;;68.55;8.07;;;3.50;80.60;;;;;;4991039;28;20152;-83
2023/01/24 10:11:17;;;;;;;71.88;9.20;;;3.70;83.30;;;;;;4991848;28;20218;-81
2023/01/24 10:13:50;;;;;;;72.13;9.15;;;3.80;78.20;;;;;;4992056;28;20226;-81
2023/01/24 10:16:32;;;;;;;71.00;9.00;;;3.70;76.50;;;;;;4991104;28;20167;-81
2023/01/24 10:19:21;;;;;;;71.53;10.40;;;3.80;84.50;;;;;;4991917;28;20578;-81
2023/01/24 10:22:20;;;;;;;71.22;10.10;;;3.70;76.20;;;;;;4992555;28;20198;-81
2023/01/24 10:25:00;;;;;;;69.63;9.27;;;3.70;79.10;;;;;;4991696;28;20252;-81
2023/01/24 10:27:35;;;;;;;71.90;10.10;;;3.70;72.20;;;;;;4992086;28;20148;-81
2023/01/24 10:30:16;;;;;;;70.95;10.82;;;3.80;65.10;;;;;;4992078;28;20194;-81
2023/01/24 10:32:44;;;;;;;71.05;9.57;;;3.70;68.40;;;;;;4992056;28;20166;-81
2023/01/24 10:35:43;;;;;;;70.72;9.02;;;3.90;63.30;;;;;;4991384;28;20171;-81
2023/01/24 10:38:14;;;;;;;71.00;9.85;;;3.80;63.00;;;;;;4990611;28;20214;-81
2023/01/24 10:41:04;;;;;;;71.90;8.43;;;3.70;76.70;;;;;;4990460;28;20213;-81
2023/01/24 10:43:32;;;;;;;73.15;10.75;;;3.60;78.10;;;;;;4991287;28;20194;-81
2023/01/24 10:46:30;;;;;;;69.68;8.70;;;3.70;72.90;;;;;;4990523;28;20182;-81
2023/01/24 10:48:58;;;;;;;69.65;9.93;;;3.70;68.80;;;;;;4980065;28;20191;-81
2023/01/24 10:51:24;;;;;;;72.32;9.40;;;3.80;71.60;;;;;;4990483;28;20187;-81
2023/01/24 10:53:51;;;;;;;71.45;9.45;;;3.80;69.30;;;;;;4991836;28;20198;-81
2023/01/24 10:56:25;;;;;;;70.25;8.65;;;3.90;72.30;;;;;;4990321;28;20198;-81
2023/01/24 10:59:20;;;;;;;71.40;9.60;;;3.90;70.80;;;;;;4991601;28;20313;-81
2023/01/24 11:01:48;;;;;;;71.80;9.18;;;3.90;70.90;;;;;;4986577;28;20207;-81
2023/01/24 11:04:23;;;;;;;71.20;9.75;;;4.10;70.90;;;;;;4990926;28;20178;-81
2023/01/24 11:06:50;;;;;;;72.10;10.45;;;4.10;61.80;;;;;;4989827;28;20163;-82
2023/01/24 11:09:21;;;;;;;71.90;10.52;;;4.00;61.80;;;;;;4990259;28;20590;-81
2023/01/24 11:11:55;;;;;;;70.22;10.15;;;4.00;58.80;;;;;;4990636;28;20197;-81
2023/01/24 11:14:35;;;;;;;71.45;9.25;;;4.00;67.40;;;;;;4991555;28;20164;-81
2023/01/24 11:17:01;;;;;;;71.75;9.52;;;3.90;68.70;;;;;;4990679;28;20155;-81
2023/01/24 11:19:31;;;;;;;70.35;9.60;;;3.80;69.40;;;;;;5056147;23;20172;-81
2023/01/24 11:21:59;;;;;;;69.93;9.20;;;3.80;75.20;;;;;;5002043;28;20198;-81
2023/01/24 11:24:27;;;;;;;75.03;10.45;;;3.90;69.30;;;;;;4986214;28;20166;-81
2023/01/24 11:26:54;;;;;;;71.82;10.82;;;3.90;64.20;;;;;;4986195;28;20229;-82
2023/01/24 11:29:24;;;;;;;73.78;11.57;;;4.00;63.90;;;;;;4986023;28;20179;-81
2023/01/24 11:31:59;;;;;;;70.60;9.70;;;4.00;60.80;;;;;;5003207;28;20182;-81
2023/01/24 11:34:53;;;;;;;70.00;9.60;;;3.90;68.70;;;;;;5004208;28;20637;-81
2023/01/24 11:37:33;;;;;;;71.05;10.82;;;3.90;74.20;;;;;;5003011;28;20167;-81
2023/01/24 11:40:21;;;;;;;73.80;11.43;;;4.20;67.90;;;;;;4986027;28;20171;-81
2023/01/24 11:43:00;;;;;;;72.18;10.00;;;4.10;63.60;;;;;;5003292;28;20193;-81
2023/01/24 11:46:12;;;;;;;71.10;10.65;;;3.90;61.90;;;;;;4985905;28;20178;-81
2023/01/24 11:49:05;;;;;;;70.82;9.38;;;4.10;61.90;;;;;;5003484;28;20179;-82
2023/01/24 11:51:40;;;;;;;72.90;10.57;;;4.00;63.90;;;;;;5002089;28;20603;-81
2023/01/24 11:54:29;;;;;;;75.63;11.73;;;4.10;62.30;;;;;;4985333;28;20265;-81
2023/01/24 11:57:32;;;;;;;76.43;11.80;;;4.20;55.50;;;;;;4985640;28;20163;-81
2023/01/24 12:00:19;;;;;;;72.85;10.95;;;4.10;53.30;;;;;;4999757;28;20679;-81
2023/01/24 12:03:06;;;;;;;73.10;11.20;;;4.00;60.70;;;;;;4984558;28;20282;-81
2023/01/24 12:05:41;;;;;;;72.80;10.90;;;3.90;62.60;;;;;;5003042;28;20155;-81
2023/01/24 12:08:33;;;;;;;72.82;10.32;;;4.00;64.40;;;;;;4985277;28;20190;-81
2023/01/24 12:11:15;;;;;;;71.38;10.50;;;4.10;59.10;;;;;;4971169;28;20202;-81
2023/01/24 12:14:21;;;;;;;71.07;10.23;;;4.20;55.90;;;;;;4984792;28;20170;-81
2023/01/24 12:17:41;;;;;;;70.85;9.32;;;4.20;56.90;;;;;;4963193;28;20178;-81
2023/01/24 12:20:34;;;;;;;72.60;10.40;;;4.20;53.80;;;;;;5001761;28;20557;-81
2023/01/24 12:23:32;;;;;;;71.50;9.48;;;3.90;60.20;;;;;;4984427;28;20191;-81
2023/01/24 12:26:21;;;;;;;74.28;12.00;;;4.00;60.50;;;;;;4984164;28;20178;-81
2023/01/24 12:29:01;;;;;;;71.80;11.07;;;4.10;58.30;;;;;;4984573;28;20159;-82
2023/01/24 12:31:43;;;;;;;72.10;10.98;;;4.10;60.40;;;;;;5002561;28;20590;-81
2023/01/24 12:34:52;;;;;;;72.05;10.35;;;4.10;59.90;;;;;;5002440;28;20155;-81
2023/01/24 12:37:36;;;;;;;73.20;10.82;;;4.00;64.70;;;;;;5002805;28;20150;-81
2023/01/24 12:40:20;;;;;;;75.05;11.43;;;4.00;65.80;;;;;;5002071;28;20163;-81
2023/01/24 12:43:05;;;;;;;72.70;11.27;;;4.10;70.90;;;;;;4984191;28;20193;-81
2023/01/24 12:45:46;;;;;;;72.00;10.30;;;4.20;64.10;;;;;;5002251;28;20147;-81
2023/01/24 12:48:18;;;;;;;72.10;11.90;;;4.30;48.70;;;;;;5001260;28;20151;-81
2023/01/24 12:51:10;;;;;;;72.72;11.98;;;4.30;47.80;;;;;;4983313;28;20650;-81
2023/01/24 12:53:44;;;;;;;74.30;10.80;;;4.50;49.40;;;;;;4982757;28;20210;-81
2023/01/24 12:56:30;;;;;;;72.43;11.45;;;4.40;46.70;;;;;;4983795;28;20628;-81
2023/01/24 12:58:56;;;;;;;73.93;12.07;;;4.40;45.80;;;;;;5000816;28;20182;-81
2023/01/24 13:01:26;;;;;;;75.70;11.33;;;4.40;50.10;;;;;;4983406;28;20213;-81
2023/01/24 13:04:16;;;;;;;74.57;14.10;;;4.50;52.60;;;;;;5001049;28;20492;-82
2023/01/24 13:07:17;;;;;;;74.00;12.40;;;4.40;50.50;;;;;;5001407;28;20159;-82
2023/01/24 13:10:21;;;;;;;71.85;12.32;;;4.40;55.90;;;;;;4984163;28;20170;-81
2023/01/24 13:12:48;;;;;;;72.95;11.40;;;4.50;48.50;;;;;;4987859;28;20154;-81
2023/01/24 13:16:21;;;;;;;80.97;25.58;;;4.30;54.80;;;;;;5001201;28;20177;-81
2023/01/24 13:19:10;;;;;;;75.80;13.05;;;4.40;56.70;;;;;;4914452;29;20188;-81
2023/01/24 13:21:39;;;;;;;73.70;11.18;;;4.50;47.50;;;;;;4921445;29;20252;-81
2023/01/24 13:24:32;;;;;;;73.88;13.82;;;4.50;44.90;;;;;;4989369;28;20210;-81
2023/01/24 13:27:14;;;;;;;74.15;12.13;;;4.30;50.70;;;;;;4984270;28;20163;-81
2023/01/24 13:29:51;;;;;;;73.75;12.50;;;4.20;52.30;;;;;;5002189;28;20151;-81
2023/01/24 13:32:24;;;;;;;74.20;12.02;;;4.10;58.70;;;;;;4984389;28;20197;-81
2023/01/24 13:34:58;;;;;;;73.10;11.63;;;4.10;55.50;;;;;;5001123;28;20158;-81
2023/01/24 13:37:37;;;;;;;73.38;11.75;;;4.10;53.00;;;;;;5001016;28;20155;-81
2023/01/24 13:40:37;;;;;;;74.13;11.98;;;4.10;53.70;;;;;;5001044;28;20622;-81
2023/01/24 13:43:47;;;;;;;72.15;12.10;;;4.00;55.20;;;;;;5003303;28;20178;-81
2023/01/24 13:46:16;;;;;;;74.55;11.77;;;3.90;60.90;;;;;;5003917;28;20168;-81
2023/01/24 13:48:57;;;;;;;73.68;12.15;;;4.10;58.80;;;;;;5004184;28;20225;-81
2023/01/24 13:51:47;;;;;;;74.10;12.18;;;4.20;52.00;;;;;;5003550;28;20199;-81